sensor_id;sensor_type;location;lat;lon;timestamp;temperature;humidity
16128;DHT22;8168;49.036;7.690;2023-04-25T00:00:37;8.90;99.90
16128;DHT22;8168;49.036;7.690;2023-04-25T00:03:08;8.90;99.90
16128;DHT22;8168;49.036;7.690;2023-04-25T00:05:40;8.90;99.90
16128;DHT22;8168;49.036;7.690;2023-04-25T00:08:11;8.90;99.90
16128;DHT22;8168;49.036;7.690;2023-04-25T00:10:41;8.90;99.90
16128;DHT22;8168;49.036;7.690;2023-04-25T00:13:12;8.90;99.90
16128;DHT22;8168;49.036;7.690;2023-04-25T00:15:43;8.90;99.90
16128;DHT22;8168;49.036;7.690;2023-04-25T00:18:15;8.90;99.90
16128;DHT22;8168;49.036;7.690;2023-04-25T00:20:45;8.90;99.90
16128;DHT22;8168;49.036;7.690;2023-04-25T00:23:17;8.80;99.90
16128;DHT22;8168;49.036;7.690;2023-04-25T00:25:50;8.90;99.90
16128;DHT22;8168;49.036;7.690;2023-04-25T00:28:21;8.90;99.90
16128;DHT22;8168;49.036;7.690;2023-04-25T00:30:52;8.90;99.90
16128;DHT22;8168;49.036;7.690;2023-04-25T00:33:22;8.90;99.90
16128;DHT22;8168;49.036;7.690;2023-04-25T00:35:53;8.80;99.90
16128;DHT22;8168;49.036;7.690;2023-04-25T00:38:24;8.70;99.90
16128;DHT22;8168;49.036;7.690;2023-04-25T00:40:54;8.80;99.90
16128;DHT22;8168;49.036;7.690;2023-04-25T00:43:30;8.80;99.90
16128;DHT22;8168;49.036;7.690;2023-04-25T00:46:02;8.80;99.90
16128;DHT22;8168;49.036;7.690;2023-04-25T00:48:33;8.80;99.90
16128;DHT22;8168;49.036;7.690;2023-04-25T00:51:04;8.80;99.90
16128;DHT22;8168;49.036;7.690;2023-04-25T00:53:35;8.80;99.90
16128;DHT22;8168;49.036;7.690;2023-04-25T00:56:06;8.80;99.90
16128;DHT22;8168;49.036;7.690;2023-04-25T00:58:37;8.80;99.90
16128;DHT22;8168;49.036;7.690;2023-04-25T01:01:09;8.70;99.90
16128;DHT22;8168;49.036;7.690;2023-04-25T01:03:40;8.70;99.90
16128;DHT22;8168;49.036;7.690;2023-04-25T01:06:12;8.70;99.90
16128;DHT22;8168;49.036;7.690;2023-04-25T01:08:43;8.70;99.90
16128;DHT22;8168;49.036;7.690;2023-04-25T01:11:13;8.70;99.90
16128;DHT22;8168;49.036;7.690;2023-04-25T01:13:45;8.70;99.90
16128;DHT22;8168;49.036;7.690;2023-04-25T01:16:15;8.70;99.90
16128;DHT22;8168;49.036;7.690;2023-04-25T01:18:46;8.70;99.90
16128;DHT22;8168;49.036;7.690;2023-04-25T01:21:17;8.70;99.90
16128;DHT22;8168;49.036;7.690;2023-04-25T01:23:48;8.70;99.90
16128;DHT22;8168;49.036;7.690;2023-04-25T01:26:19;8.70;99.90
16128;DHT22;8168;49.036;7.690;2023-04-25T01:28:51;8.70;99.90
16128;DHT22;8168;49.036;7.690;2023-04-25T01:31:22;8.80;99.90
16128;DHT22;8168;49.036;7.690;2023-04-25T01:33:53;8.80;99.90
16128;DHT22;8168;49.036;7.690;2023-04-25T01:36:23;8.80;99.90
16128;DHT22;8168;49.036;7.690;2023-04-25T01:38:54;8.80;99.90
16128;DHT22;8168;49.036;7.690;2023-04-25T01:41:25;8.80;99.90
16128;DHT22;8168;49.036;7.690;2023-04-25T01:43:56;8.80;99.90
16128;DHT22;8168;49.036;7.690;2023-04-25T01:46:27;8.80;99.90
16128;DHT22;8168;49.036;7.690;2023-04-25T01:48:58;8.80;99.90
16128;DHT22;8168;49.036;7.690;2023-04-25T01:51:29;8.80;99.90
16128;DHT22;8168;49.036;7.690;2023-04-25T01:54:00;8.70;99.90
16128;DHT22;8168;49.036;7.690;2023-04-25T01:56:32;8.70;99.90
16128;DHT22;8168;49.036;7.690;2023-04-25T01:59:04;8.70;99.90
16128;DHT22;8168;49.036;7.690;2023-04-25T02:01:35;8.70;99.90
16128;DHT22;8168;49.036;7.690;2023-04-25T02:04:06;8.70;99.90
16128;DHT22;8168;49.036;7.690;2023-04-25T02:06:36;8.70;99.90
16128;DHT22;8168;49.036;7.690;2023-04-25T02:09:07;8.70;99.90
16128;DHT22;8168;49.036;7.690;2023-04-25T02:11:38;8.70;99.90
16128;DHT22;8168;49.036;7.690;2023-04-25T02:14:08;8.70;99.90
16128;DHT22;8168;49.036;7.690;2023-04-25T02:16:39;8.70;99.90
16128;DHT22;8168;49.036;7.690;2023-04-25T02:19:10;8.80;99.90
16128;DHT22;8168;49.036;7.690;2023-04-25T02:21:41;8.60;99.90
16128;DHT22;8168;49.036;7.690;2023-04-25T02:24:11;8.70;99.90
16128;DHT22;8168;49.036;7.690;2023-04-25T02:26:42;8.60;99.90
16128;DHT22;8168;49.036;7.690;2023-04-25T02:29:12;8.60;99.90
16128;DHT22;8168;49.036;7.690;2023-04-25T02:31:45;8.60;99.90
16128;DHT22;8168;49.036;7.690;2023-04-25T02:34:15;8.60;99.90
16128;DHT22;8168;49.036;7.690;2023-04-25T02:36:48;8.60;99.90
16128;DHT22;8168;49.036;7.690;2023-04-25T02:39:20;8.60;99.90
16128;DHT22;8168;49.036;7.690;2023-04-25T02:41:52;8.60;99.90
16128;DHT22;8168;49.036;7.690;2023-04-25T02:44:23;8.60;99.90
16128;DHT22;8168;49.036;7.690;2023-04-25T02:46:53;8.60;99.90
16128;DHT22;8168;49.036;7.690;2023-04-25T02:49:24;8.60;99.90
16128;DHT22;8168;49.036;7.690;2023-04-25T02:51:55;8.50;99.90
16128;DHT22;8168;49.036;7.690;2023-04-25T02:54:25;8.50;99.90
16128;DHT22;8168;49.036;7.690;2023-04-25T02:56:56;8.50;99.90
16128;DHT22;8168;49.036;7.690;2023-04-25T02:59:27;8.50;99.90
16128;DHT22;8168;49.036;7.690;2023-04-25T03:01:57;8.50;99.90
16128;DHT22;8168;49.036;7.690;2023-04-25T03:04:28;8.50;99.90
16128;DHT22;8168;49.036;7.690;2023-04-25T03:06:58;8.50;99.90
16128;DHT22;8168;49.036;7.690;2023-04-25T03:09:29;8.50;99.90
16128;DHT22;8168;49.036;7.690;2023-04-25T03:12:00;8.50;99.90
16128;DHT22;8168;49.036;7.690;2023-04-25T03:14:32;8.40;99.90
16128;DHT22;8168;49.036;7.690;2023-04-25T03:17:03;8.40;99.90
16128;DHT22;8168;49.036;7.690;2023-04-25T03:19:33;8.40;99.90
16128;DHT22;8168;49.036;7.690;2023-04-25T03:22:04;8.30;99.90
16128;DHT22;8168;49.036;7.690;2023-04-25T03:24:35;8.30;99.90
16128;DHT22;8168;49.036;7.690;2023-04-25T03:27:07;8.30;99.90
16128;DHT22;8168;49.036;7.690;2023-04-25T03:29:37;8.30;99.90
16128;DHT22;8168;49.036;7.690;2023-04-25T03:32:08;8.30;99.90
16128;DHT22;8168;49.036;7.690;2023-04-25T03:34:38;8.20;99.90
16128;DHT22;8168;49.036;7.690;2023-04-25T03:37:09;8.20;99.90
16128;DHT22;8168;49.036;7.690;2023-04-25T03:39:39;8.20;99.90
16128;DHT22;8168;49.036;7.690;2023-04-25T03:42:10;8.20;99.90
16128;DHT22;8168;49.036;7.690;2023-04-25T03:44:41;8.20;99.90
16128;DHT22;8168;49.036;7.690;2023-04-25T03:47:11;8.20;99.90
16128;DHT22;8168;49.036;7.690;2023-04-25T03:49:42;8.10;99.90
16128;DHT22;8168;49.036;7.690;2023-04-25T03:52:12;8.10;99.90
16128;DHT22;8168;49.036;7.690;2023-04-25T03:54:43;8.10;99.90
16128;DHT22;8168;49.036;7.690;2023-04-25T03:57:14;8.10;99.90
16128;DHT22;8168;49.036;7.690;2023-04-25T03:59:44;8.10;99.90
16128;DHT22;8168;49.036;7.690;2023-04-25T04:02:15;8.10;99.90
16128;DHT22;8168;49.036;7.690;2023-04-25T04:04:46;8.10;99.90
16128;DHT22;8168;49.036;7.690;2023-04-25T04:07:16;8.00;99.90
16128;DHT22;8168;49.036;7.690;2023-04-25T04:09:47;8.00;99.90
16128;DHT22;8168;49.036;7.690;2023-04-25T04:12:17;8.00;99.90
16128;DHT22;8168;49.036;7.690;2023-04-25T04:14:48;8.00;99.90
16128;DHT22;8168;49.036;7.690;2023-04-25T04:17:19;8.00;99.90
16128;DHT22;8168;49.036;7.690;2023-04-25T04:19:49;8.00;99.90
16128;DHT22;8168;49.036;7.690;2023-04-25T04:22:20;7.90;99.90
16128;DHT22;8168;49.036;7.690;2023-04-25T04:24:50;8.00;99.90
16128;DHT22;8168;49.036;7.690;2023-04-25T04:27:21;8.00;99.90
16128;DHT22;8168;49.036;7.690;2023-04-25T04:29:52;7.90;99.90
16128;DHT22;8168;49.036;7.690;2023-04-25T04:32:23;7.90;99.90
16128;DHT22;8168;49.036;7.690;2023-04-25T04:34:55;7.90;99.90
16128;DHT22;8168;49.036;7.690;2023-04-25T04:37:26;7.90;99.90
16128;DHT22;8168;49.036;7.690;2023-04-25T04:39:57;7.90;99.90
16128;DHT22;8168;49.036;7.690;2023-04-25T04:42:27;8.10;99.90
16128;DHT22;8168;49.036;7.690;2023-04-25T04:44:58;7.90;99.90
16128;DHT22;8168;49.036;7.690;2023-04-25T04:47:29;7.90;99.90
16128;DHT22;8168;49.036;7.690;2023-04-25T04:50:03;7.90;99.90
16128;DHT22;8168;49.036;7.690;2023-04-25T04:52:37;7.90;99.90
16128;DHT22;8168;49.036;7.690;2023-04-25T04:55:08;7.90;99.90
16128;DHT22;8168;49.036;7.690;2023-04-25T04:57:39;7.90;99.90
16128;DHT22;8168;49.036;7.690;2023-04-25T05:00:10;8.30;99.90
16128;DHT22;8168;49.036;7.690;2023-04-25T05:02:41;7.90;99.90
16128;DHT22;8168;49.036;7.690;2023-04-25T05:05:12;7.90;99.90
16128;DHT22;8168;49.036;7.690;2023-04-25T05:07:42;7.90;99.90
16128;DHT22;8168;49.036;7.690;2023-04-25T05:10:13;7.90;99.90
16128;DHT22;8168;49.036;7.690;2023-04-25T05:12:44;7.90;99.90
16128;DHT22;8168;49.036;7.690;2023-04-25T05:15:15;7.90;99.90
16128;DHT22;8168;49.036;7.690;2023-04-25T05:17:46;7.90;99.90
16128;DHT22;8168;49.036;7.690;2023-04-25T05:20:16;7.90;99.90
16128;DHT22;8168;49.036;7.690;2023-04-25T05:22:49;8.00;99.90
16128;DHT22;8168;49.036;7.690;2023-04-25T05:25:19;8.00;99.90
16128;DHT22;8168;49.036;7.690;2023-04-25T05:27:50;8.30;99.90
16128;DHT22;8168;49.036;7.690;2023-04-25T05:30:22;8.00;99.90
16128;DHT22;8168;49.036;7.690;2023-04-25T05:32:53;8.10;99.90
16128;DHT22;8168;49.036;7.690;2023-04-25T05:35:24;8.10;99.90
16128;DHT22;8168;49.036;7.690;2023-04-25T05:37:54;8.20;99.90
16128;DHT22;8168;49.036;7.690;2023-04-25T05:40:25;8.00;99.90
16128;DHT22;8168;49.036;7.690;2023-04-25T05:42:56;8.10;99.90
16128;DHT22;8168;49.036;7.690;2023-04-25T05:45:26;8.10;99.90
16128;DHT22;8168;49.036;7.690;2023-04-25T05:47:57;8.20;99.90
16128;DHT22;8168;49.036;7.690;2023-04-25T05:50:27;8.10;99.90
16128;DHT22;8168;49.036;7.690;2023-04-25T05:52:58;8.20;99.90
16128;DHT22;8168;49.036;7.690;2023-04-25T05:55:28;8.20;99.90
16128;DHT22;8168;49.036;7.690;2023-04-25T05:57:59;8.20;99.90
16128;DHT22;8168;49.036;7.690;2023-04-25T06:00:30;8.20;99.90
16128;DHT22;8168;49.036;7.690;2023-04-25T06:03:00;8.20;99.90
16128;DHT22;8168;49.036;7.690;2023-04-25T06:05:31;8.20;99.90
16128;DHT22;8168;49.036;7.690;2023-04-25T06:08:02;8.30;99.90
16128;DHT22;8168;49.036;7.690;2023-04-25T06:10:32;8.30;99.90
16128;DHT22;8168;49.036;7.690;2023-04-25T06:13:04;8.30;99.90
16128;DHT22;8168;49.036;7.690;2023-04-25T06:15:34;8.30;99.90
16128;DHT22;8168;49.036;7.690;2023-04-25T06:18:05;8.30;99.90
16128;DHT22;8168;49.036;7.690;2023-04-25T06:20:36;8.30;99.90
16128;DHT22;8168;49.036;7.690;2023-04-25T06:23:06;8.30;99.90
16128;DHT22;8168;49.036;7.690;2023-04-25T06:25:37;8.30;99.90
16128;DHT22;8168;49.036;7.690;2023-04-25T06:28:07;8.40;99.90
16128;DHT22;8168;49.036;7.690;2023-04-25T06:30:38;8.40;99.90
16128;DHT22;8168;49.036;7.690;2023-04-25T06:33:09;8.40;99.90
16128;DHT22;8168;49.036;7.690;2023-04-25T06:35:39;8.40;99.90
16128;DHT22;8168;49.036;7.690;2023-04-25T06:38:10;8.50;99.90
16128;DHT22;8168;49.036;7.690;2023-04-25T06:40:40;8.40;99.90
16128;DHT22;8168;49.036;7.690;2023-04-25T06:43:11;8.40;99.90
16128;DHT22;8168;49.036;7.690;2023-04-25T06:45:42;8.50;99.90
16128;DHT22;8168;49.036;7.690;2023-04-25T06:48:12;8.50;99.90
16128;DHT22;8168;49.036;7.690;2023-04-25T06:50:43;8.50;99.90
16128;DHT22;8168;49.036;7.690;2023-04-25T06:53:13;8.50;99.90
16128;DHT22;8168;49.036;7.690;2023-04-25T06:55:44;8.60;99.90
16128;DHT22;8168;49.036;7.690;2023-04-25T06:58:15;8.60;99.90
16128;DHT22;8168;49.036;7.690;2023-04-25T07:00:45;8.50;99.90
16128;DHT22;8168;49.036;7.690;2023-04-25T07:03:16;8.60;99.90
16128;DHT22;8168;49.036;7.690;2023-04-25T07:05:46;8.60;99.90
16128;DHT22;8168;49.036;7.690;2023-04-25T07:08:17;8.60;99.90
16128;DHT22;8168;49.036;7.690;2023-04-25T07:10:48;8.60;99.90
16128;DHT22;8168;49.036;7.690;2023-04-25T07:13:18;8.60;99.90
16128;DHT22;8168;49.036;7.690;2023-04-25T07:15:49;8.70;99.90
16128;DHT22;8168;49.036;7.690;2023-04-25T07:18:19;8.70;99.90
16128;DHT22;8168;49.036;7.690;2023-04-25T07:20:50;8.70;99.90
16128;DHT22;8168;49.036;7.690;2023-04-25T07:23:21;8.70;99.90
16128;DHT22;8168;49.036;7.690;2023-04-25T07:25:51;8.70;99.90
16128;DHT22;8168;49.036;7.690;2023-04-25T07:28:22;8.70;99.90
16128;DHT22;8168;49.036;7.690;2023-04-25T07:30:52;8.70;99.90
16128;DHT22;8168;49.036;7.690;2023-04-25T07:33:23;8.70;99.90
16128;DHT22;8168;49.036;7.690;2023-04-25T07:35:54;8.70;99.90
16128;DHT22;8168;49.036;7.690;2023-04-25T07:38:26;8.80;99.90
16128;DHT22;8168;49.036;7.690;2023-04-25T07:40:56;8.80;99.90
16128;DHT22;8168;49.036;7.690;2023-04-25T07:43:27;8.80;99.90
16128;DHT22;8168;49.036;7.690;2023-04-25T07:45:58;8.80;99.90
16128;DHT22;8168;49.036;7.690;2023-04-25T07:48:28;8.80;99.90
16128;DHT22;8168;49.036;7.690;2023-04-25T07:50:59;8.70;99.90
16128;DHT22;8168;49.036;7.690;2023-04-25T07:53:29;8.80;99.90
16128;DHT22;8168;49.036;7.690;2023-04-25T07:56:00;8.80;99.90
16128;DHT22;8168;49.036;7.690;2023-04-25T07:58:31;8.80;99.90
16128;DHT22;8168;49.036;7.690;2023-04-25T08:01:02;8.80;99.90
16128;DHT22;8168;49.036;7.690;2023-04-25T08:03:32;8.80;99.90
16128;DHT22;8168;49.036;7.690;2023-04-25T08:06:03;8.90;99.90
16128;DHT22;8168;49.036;7.690;2023-04-25T08:08:34;8.80;99.90
16128;DHT22;8168;49.036;7.690;2023-04-25T08:11:04;8.80;99.90
16128;DHT22;8168;49.036;7.690;2023-04-25T08:13:35;8.80;99.90
16128;DHT22;8168;49.036;7.690;2023-04-25T08:16:05;8.80;99.90
16128;DHT22;8168;49.036;7.690;2023-04-25T08:18:36;8.80;99.90
16128;DHT22;8168;49.036;7.690;2023-04-25T08:21:07;8.80;99.90
16128;DHT22;8168;49.036;7.690;2023-04-25T08:23:39;8.80;99.90
16128;DHT22;8168;49.036;7.690;2023-04-25T08:26:09;8.80;99.90
16128;DHT22;8168;49.036;7.690;2023-04-25T08:28:40;8.80;99.90
16128;DHT22;8168;49.036;7.690;2023-04-25T08:31:11;8.80;99.90
16128;DHT22;8168;49.036;7.690;2023-04-25T08:33:41;8.80;99.90
16128;DHT22;8168;49.036;7.690;2023-04-25T08:36:12;8.80;99.90
16128;DHT22;8168;49.036;7.690;2023-04-25T08:38:43;8.80;99.90
16128;DHT22;8168;49.036;7.690;2023-04-25T08:41:13;8.90;99.90
16128;DHT22;8168;49.036;7.690;2023-04-25T08:43:47;8.90;99.90
16128;DHT22;8168;49.036;7.690;2023-04-25T08:46:18;8.90;99.90
16128;DHT22;8168;49.036;7.690;2023-04-25T08:48:52;8.80;99.90
16128;DHT22;8168;49.036;7.690;2023-04-25T08:51:24;8.80;99.90
16128;DHT22;8168;49.036;7.690;2023-04-25T08:53:56;8.80;99.90
16128;DHT22;8168;49.036;7.690;2023-04-25T08:56:32;8.80;99.90
16128;DHT22;8168;49.036;7.690;2023-04-25T08:59:05;8.80;99.90
16128;DHT22;8168;49.036;7.690;2023-04-25T09:01:38;8.90;99.90
16128;DHT22;8168;49.036;7.690;2023-04-25T09:04:08;8.90;99.90
16128;DHT22;8168;49.036;7.690;2023-04-25T09:06:39;9.00;99.90
16128;DHT22;8168;49.036;7.690;2023-04-25T09:09:10;9.00;99.90
16128;DHT22;8168;49.036;7.690;2023-04-25T09:11:41;8.90;99.90
16128;DHT22;8168;49.036;7.690;2023-04-25T09:14:22;9.00;99.90
16128;DHT22;8168;49.036;7.690;2023-04-25T09:19:34;9.10;99.90
16128;DHT22;8168;49.036;7.690;2023-04-25T09:22:06;9.10;99.90
16128;DHT22;8168;49.036;7.690;2023-04-25T09:24:42;9.20;99.90
16128;DHT22;8168;49.036;7.690;2023-04-25T09:27:20;9.20;99.90
16128;DHT22;8168;49.036;7.690;2023-04-25T09:29:58;9.20;99.90
16128;DHT22;8168;49.036;7.690;2023-04-25T09:32:32;9.30;99.90
16128;DHT22;8168;49.036;7.690;2023-04-25T09:35:02;9.30;99.90
16128;DHT22;8168;49.036;7.690;2023-04-25T09:37:35;9.30;99.90
16128;DHT22;8168;49.036;7.690;2023-04-25T09:40:07;9.30;99.90
16128;DHT22;8168;49.036;7.690;2023-04-25T09:42:41;9.30;99.90
16128;DHT22;8168;49.036;7.690;2023-04-25T09:45:14;9.40;99.90
16128;DHT22;8168;49.036;7.690;2023-04-25T09:47:45;9.50;99.90
16128;DHT22;8168;49.036;7.690;2023-04-25T09:50:17;9.60;99.90
16128;DHT22;8168;49.036;7.690;2023-04-25T09:53:03;9.60;99.90
16128;DHT22;8168;49.036;7.690;2023-04-25T09:55:34;9.60;99.90
16128;DHT22;8168;49.036;7.690;2023-04-25T09:58:06;9.70;99.90
16128;DHT22;8168;49.036;7.690;2023-04-25T10:00:38;9.80;99.90
16128;DHT22;8168;49.036;7.690;2023-04-25T10:03:11;9.80;99.90
16128;DHT22;8168;49.036;7.690;2023-04-25T10:05:43;9.90;99.90
16128;DHT22;8168;49.036;7.690;2023-04-25T10:08:14;9.90;99.90
16128;DHT22;8168;49.036;7.690;2023-04-25T10:10:47;10.00;99.90
16128;DHT22;8168;49.036;7.690;2023-04-25T10:13:19;10.10;99.90
16128;DHT22;8168;49.036;7.690;2023-04-25T10:15:51;10.10;99.90
16128;DHT22;8168;49.036;7.690;2023-04-25T10:18:22;10.10;99.90
16128;DHT22;8168;49.036;7.690;2023-04-25T10:21:00;9.20;99.90
16128;DHT22;8168;49.036;7.690;2023-04-25T10:23:32;10.00;99.90
16128;DHT22;8168;49.036;7.690;2023-04-25T10:26:04;9.90;99.90
16128;DHT22;8168;49.036;7.690;2023-04-25T10:28:58;9.80;99.90
16128;DHT22;8168;49.036;7.690;2023-04-25T10:31:30;9.70;99.90
16128;DHT22;8168;49.036;7.690;2023-04-25T10:34:01;9.70;99.90
16128;DHT22;8168;49.036;7.690;2023-04-25T10:36:32;9.60;99.90
16128;DHT22;8168;49.036;7.690;2023-04-25T10:39:05;9.30;99.90
16128;DHT22;8168;49.036;7.690;2023-04-25T10:41:57;9.20;99.90
16128;DHT22;8168;49.036;7.690;2023-04-25T10:44:29;9.10;99.90
16128;DHT22;8168;49.036;7.690;2023-04-25T10:47:01;9.00;99.90
16128;DHT22;8168;49.036;7.690;2023-04-25T10:49:35;8.90;99.90
16128;DHT22;8168;49.036;7.690;2023-04-25T10:52:34;8.80;99.90
16128;DHT22;8168;49.036;7.690;2023-04-25T10:55:04;8.60;99.90
16128;DHT22;8168;49.036;7.690;2023-04-25T10:57:43;8.50;99.90
16128;DHT22;8168;49.036;7.690;2023-04-25T11:00:17;8.40;99.90
16128;DHT22;8168;49.036;7.690;2023-04-25T11:02:53;8.30;99.90
16128;DHT22;8168;49.036;7.690;2023-04-25T11:05:32;8.30;99.90
16128;DHT22;8168;49.036;7.690;2023-04-25T11:08:10;8.40;99.90
16128;DHT22;8168;49.036;7.690;2023-04-25T11:10:42;8.40;99.90
16128;DHT22;8168;49.036;7.690;2023-04-25T11:13:12;8.50;99.90
16128;DHT22;8168;49.036;7.690;2023-04-25T11:15:43;8.50;99.90
16128;DHT22;8168;49.036;7.690;2023-04-25T11:18:17;8.50;99.90
16128;DHT22;8168;49.036;7.690;2023-04-25T11:20:49;8.50;99.90
16128;DHT22;8168;49.036;7.690;2023-04-25T11:23:20;8.60;99.90
16128;DHT22;8168;49.036;7.690;2023-04-25T11:25:50;8.60;99.90
16128;DHT22;8168;49.036;7.690;2023-04-25T11:28:22;8.60;99.90
16128;DHT22;8168;49.036;7.690;2023-04-25T11:30:53;8.60;99.90
16128;DHT22;8168;49.036;7.690;2023-04-25T11:33:25;8.80;99.90
16128;DHT22;8168;49.036;7.690;2023-04-25T11:35:58;8.90;99.90
16128;DHT22;8168;49.036;7.690;2023-04-25T11:38:28;9.10;99.90
16128;DHT22;8168;49.036;7.690;2023-04-25T11:40:59;9.30;99.90
16128;DHT22;8168;49.036;7.690;2023-04-25T11:43:30;9.60;99.90
16128;DHT22;8168;49.036;7.690;2023-04-25T11:46:00;9.80;99.90
16128;DHT22;8168;49.036;7.690;2023-04-25T11:48:37;10.10;99.90
16128;DHT22;8168;49.036;7.690;2023-04-25T11:51:08;10.30;99.90
16128;DHT22;8168;49.036;7.690;2023-04-25T11:53:44;10.50;99.90
16128;DHT22;8168;49.036;7.690;2023-04-25T11:56:15;10.70;99.90
16128;DHT22;8168;49.036;7.690;2023-04-25T11:58:59;10.80;99.90
16128;DHT22;8168;49.036;7.690;2023-04-25T12:01:37;10.80;99.90
16128;DHT22;8168;49.036;7.690;2023-04-25T12:04:15;10.90;99.90
16128;DHT22;8168;49.036;7.690;2023-04-25T12:06:47;10.90;99.90
16128;DHT22;8168;49.036;7.690;2023-04-25T12:09:20;10.90;99.90
16128;DHT22;8168;49.036;7.690;2023-04-25T12:11:55;10.80;99.90
16128;DHT22;8168;49.036;7.690;2023-04-25T12:14:33;10.70;99.90
16128;DHT22;8168;49.036;7.690;2023-04-25T12:17:04;10.70;99.90
16128;DHT22;8168;49.036;7.690;2023-04-25T12:19:38;10.70;99.90
16128;DHT22;8168;49.036;7.690;2023-04-25T12:22:23;10.70;99.90
16128;DHT22;8168;49.036;7.690;2023-04-25T12:24:53;10.70;99.90
16128;DHT22;8168;49.036;7.690;2023-04-25T12:27:25;10.70;99.90
16128;DHT22;8168;49.036;7.690;2023-04-25T12:29:57;10.80;99.90
16128;DHT22;8168;49.036;7.690;2023-04-25T12:32:28;11.00;99.90
16128;DHT22;8168;49.036;7.690;2023-04-25T12:34:59;11.10;99.90
16128;DHT22;8168;49.036;7.690;2023-04-25T12:37:30;11.10;99.90
16128;DHT22;8168;49.036;7.690;2023-04-25T12:40:01;11.20;99.90
16128;DHT22;8168;49.036;7.690;2023-04-25T12:42:32;11.30;99.90
16128;DHT22;8168;49.036;7.690;2023-04-25T12:45:02;11.50;99.90
16128;DHT22;8168;49.036;7.690;2023-04-25T12:47:33;11.70;99.90
16128;DHT22;8168;49.036;7.690;2023-04-25T12:50:05;11.80;99.90
16128;DHT22;8168;49.036;7.690;2023-04-25T12:52:36;11.90;99.90
16128;DHT22;8168;49.036;7.690;2023-04-25T12:55:06;12.00;99.90
16128;DHT22;8168;49.036;7.690;2023-04-25T12:57:37;12.10;99.90
16128;DHT22;8168;49.036;7.690;2023-04-25T13:00:08;12.20;99.90
16128;DHT22;8168;49.036;7.690;2023-04-25T13:02:45;12.30;99.90
16128;DHT22;8168;49.036;7.690;2023-04-25T13:05:17;12.50;99.90
16128;DHT22;8168;49.036;7.690;2023-04-25T13:07:47;12.50;99.90
16128;DHT22;8168;49.036;7.690;2023-04-25T13:10:18;12.60;99.90
16128;DHT22;8168;49.036;7.690;2023-04-25T13:12:48;12.60;99.90
16128;DHT22;8168;49.036;7.690;2023-04-25T13:15:19;12.60;99.90
16128;DHT22;8168;49.036;7.690;2023-04-25T13:17:50;12.60;99.90
16128;DHT22;8168;49.036;7.690;2023-04-25T13:20:21;12.50;99.90
16128;DHT22;8168;49.036;7.690;2023-04-25T13:22:52;12.40;99.90
16128;DHT22;8168;49.036;7.690;2023-04-25T13:25:23;12.20;99.90
16128;DHT22;8168;49.036;7.690;2023-04-25T13:27:53;12.10;99.90
16128;DHT22;8168;49.036;7.690;2023-04-25T13:30:24;12.00;99.90
16128;DHT22;8168;49.036;7.690;2023-04-25T13:32:55;12.00;99.90
16128;DHT22;8168;49.036;7.690;2023-04-25T13:35:34;11.90;99.90
16128;DHT22;8168;49.036;7.690;2023-04-25T13:38:05;11.90;99.90
16128;DHT22;8168;49.036;7.690;2023-04-25T13:40:36;11.80;99.90
16128;DHT22;8168;49.036;7.690;2023-04-25T13:43:07;11.70;99.90
16128;DHT22;8168;49.036;7.690;2023-04-25T13:45:37;11.60;99.90
16128;DHT22;8168;49.036;7.690;2023-04-25T13:48:08;11.50;99.90
16128;DHT22;8168;49.036;7.690;2023-04-25T13:50:38;11.50;99.90
16128;DHT22;8168;49.036;7.690;2023-04-25T13:53:09;11.40;99.90
16128;DHT22;8168;49.036;7.690;2023-04-25T13:55:40;11.20;99.90
16128;DHT22;8168;49.036;7.690;2023-04-25T13:58:11;10.90;99.90
16128;DHT22;8168;49.036;7.690;2023-04-25T14:00:41;10.70;99.90
16128;DHT22;8168;49.036;7.690;2023-04-25T14:03:13;10.60;99.90
16128;DHT22;8168;49.036;7.690;2023-04-25T14:05:44;10.50;99.90
16128;DHT22;8168;49.036;7.690;2023-04-25T14:08:14;10.50;99.90
16128;DHT22;8168;49.036;7.690;2023-04-25T14:10:45;10.40;99.90
16128;DHT22;8168;49.036;7.690;2023-04-25T14:13:16;10.30;99.90
16128;DHT22;8168;49.036;7.690;2023-04-25T14:15:46;10.30;99.90
16128;DHT22;8168;49.036;7.690;2023-04-25T14:18:17;10.30;99.90
16128;DHT22;8168;49.036;7.690;2023-04-25T14:20:48;10.20;99.90
16128;DHT22;8168;49.036;7.690;2023-04-25T14:23:18;10.20;99.90
16128;DHT22;8168;49.036;7.690;2023-04-25T14:25:49;10.20;99.90
16128;DHT22;8168;49.036;7.690;2023-04-25T14:28:20;10.30;99.90
16128;DHT22;8168;49.036;7.690;2023-04-25T14:30:51;10.20;99.90
16128;DHT22;8168;49.036;7.690;2023-04-25T14:33:21;10.20;99.90
16128;DHT22;8168;49.036;7.690;2023-04-25T14:35:52;10.20;99.90
16128;DHT22;8168;49.036;7.690;2023-04-25T14:38:23;10.20;99.90
16128;DHT22;8168;49.036;7.690;2023-04-25T14:40:55;10.20;99.90
16128;DHT22;8168;49.036;7.690;2023-04-25T14:43:26;10.20;99.90
16128;DHT22;8168;49.036;7.690;2023-04-25T14:45:56;10.30;99.90
16128;DHT22;8168;49.036;7.690;2023-04-25T14:48:27;10.50;99.90
16128;DHT22;8168;49.036;7.690;2023-04-25T14:50:59;10.60;99.90
16128;DHT22;8168;49.036;7.690;2023-04-25T14:53:31;10.60;99.90
16128;DHT22;8168;49.036;7.690;2023-04-25T14:56:02;10.70;99.90
16128;DHT22;8168;49.036;7.690;2023-04-25T14:58:33;10.70;99.90
16128;DHT22;8168;49.036;7.690;2023-04-25T15:01:04;10.80;99.90
16128;DHT22;8168;49.036;7.690;2023-04-25T15:03:34;10.70;99.90
16128;DHT22;8168;49.036;7.690;2023-04-25T15:06:05;10.60;99.90
16128;DHT22;8168;49.036;7.690;2023-04-25T15:08:36;10.60;99.90
16128;DHT22;8168;49.036;7.690;2023-04-25T15:11:07;10.60;99.90
16128;DHT22;8168;49.036;7.690;2023-04-25T15:13:37;10.60;99.90
16128;DHT22;8168;49.036;7.690;2023-04-25T15:16:08;10.60;99.90
16128;DHT22;8168;49.036;7.690;2023-04-25T15:18:39;10.70;99.90
16128;DHT22;8168;49.036;7.690;2023-04-25T15:21:09;10.70;99.90
16128;DHT22;8168;49.036;7.690;2023-04-25T15:23:40;10.70;99.90
16128;DHT22;8168;49.036;7.690;2023-04-25T15:26:11;10.70;99.90
16128;DHT22;8168;49.036;7.690;2023-04-25T15:28:42;10.60;99.90
16128;DHT22;8168;49.036;7.690;2023-04-25T15:31:13;10.60;99.90
16128;DHT22;8168;49.036;7.690;2023-04-25T15:33:43;10.60;99.90
16128;DHT22;8168;49.036;7.690;2023-04-25T15:36:14;10.60;99.90
16128;DHT22;8168;49.036;7.690;2023-04-25T15:38:46;10.50;99.90
16128;DHT22;8168;49.036;7.690;2023-04-25T15:41:17;10.50;99.90
16128;DHT22;8168;49.036;7.690;2023-04-25T15:43:48;10.50;99.90
16128;DHT22;8168;49.036;7.690;2023-04-25T15:46:18;10.50;99.90
16128;DHT22;8168;49.036;7.690;2023-04-25T15:48:49;10.40;99.90
16128;DHT22;8168;49.036;7.690;2023-04-25T15:51:21;10.50;99.90
16128;DHT22;8168;49.036;7.690;2023-04-25T15:53:52;10.50;99.90
16128;DHT22;8168;49.036;7.690;2023-04-25T15:56:22;10.50;99.90
16128;DHT22;8168;49.036;7.690;2023-04-25T15:58:53;10.50;99.90
16128;DHT22;8168;49.036;7.690;2023-04-25T16:01:24;10.50;99.90
16128;DHT22;8168;49.036;7.690;2023-04-25T16:03:56;10.50;99.90
16128;DHT22;8168;49.036;7.690;2023-04-25T16:06:29;10.50;99.90
16128;DHT22;8168;49.036;7.690;2023-04-25T16:09:00;10.50;99.90
16128;DHT22;8168;49.036;7.690;2023-04-25T16:11:31;10.50;99.90
16128;DHT22;8168;49.036;7.690;2023-04-25T16:14:01;10.50;99.90
16128;DHT22;8168;49.036;7.690;2023-04-25T16:16:32;10.60;99.90
16128;DHT22;8168;49.036;7.690;2023-04-25T16:19:03;10.60;99.90
16128;DHT22;8168;49.036;7.690;2023-04-25T16:21:33;10.60;99.90
16128;DHT22;8168;49.036;7.690;2023-04-25T16:24:04;10.50;99.90
16128;DHT22;8168;49.036;7.690;2023-04-25T16:26:35;10.50;99.90